Time;durP1;ratioP1;P1;durP2;ratioP2;P2;SDS_P1;SDS_P2;PMS_P1;PMS_P2;Temp;Humidity;BMP_temperature;BMP_pressure;BME280_temperature;BME280_humidity;BME280_pressure;Samples;Min_cycle;Max_cycle;Signal;HPM_P1;HPM_P2
2023/02/08 00:01:42;;;;;;;21.30;10.73;;;;;;;0.62;98.49;103957.97;5034406;28;20053;-73
2023/02/08 00:04:07;;;;;;;15.88;10.57;;;;;;;0.61;98.63;103956.22;5050276;28;20033;-73
2023/02/08 00:06:33;;;;;;;17.38;10.77;;;;;;;0.58;98.55;103946.63;5044556;28;20040;-73
2023/02/08 00:09:00;;;;;;;16.48;10.40;;;;;;;0.59;98.55;103952.69;5057525;28;20176;-73
2023/02/08 00:11:25;;;;;;;18.98;10.77;;;;;;;0.56;98.72;103949.16;5037376;28;20043;-73
2023/02/08 00:13:51;;;;;;;16.23;9.95;;;;;;;0.55;98.75;103949.94;5042893;28;20033;-73
2023/02/08 00:16:17;;;;;;;15.38;10.05;;;;;;;0.56;98.63;103950.81;5036671;28;20049;-73
2023/02/08 00:18:42;;;;;;;14.50;9.63;;;;;;;0.55;98.62;103944.78;5038620;28;20060;-73
2023/02/08 00:21:14;;;;;;;16.35;9.70;;;;;;;0.53;98.83;103943.81;5036830;28;20383;-73
2023/02/08 00:23:39;;;;;;;13.93;9.57;;;;;;;0.52;98.79;103933.44;5049695;28;20336;-73
2023/02/08 00:26:05;;;;;;;12.00;8.75;;;;;;;0.51;98.66;103940.28;5052903;28;20072;-73
2023/02/08 00:28:30;;;;;;;15.57;9.77;;;;;;;0.51;98.94;103935.13;5051779;28;20123;-73
2023/02/08 00:30:56;;;;;;;19.33;10.52;;;;;;;0.50;98.88;103929.88;5044255;28;20056;-73
2023/02/08 00:33:21;;;;;;;26.85;14.68;;;;;;;0.49;98.85;103926.44;5039809;28;20045;-73
2023/02/08 00:35:46;;;;;;;32.45;15.02;;;;;;;0.49;98.94;103933.25;5038876;28;20429;-73
2023/02/08 00:38:12;;;;;;;37.58;18.98;;;;;;;0.49;98.82;103929.00;5044154;28;20051;-73
2023/02/08 00:40:37;;;;;;;42.72;21.25;;;;;;;0.48;98.92;103929.81;5048190;28;20072;-73
2023/02/08 00:43:03;;;;;;;43.97;20.73;;;;;;;0.48;99.22;103921.19;5057536;28;20033;-73
2023/02/08 00:45:28;;;;;;;37.97;19.45;;;;;;;0.48;99.11;103928.94;5051749;28;20251;-73
2023/02/08 00:47:54;;;;;;;32.72;18.85;;;;;;;0.45;99.04;103916.75;5056877;28;20348;-73
2023/02/08 00:50:19;;;;;;;35.17;18.10;;;;;;;0.45;98.94;103916.75;5037870;28;20294;-73
2023/02/08 00:52:44;;;;;;;35.08;19.92;;;;;;;0.45;98.97;103913.28;5021573;28;20340;-73
2023/02/08 00:55:10;;;;;;;38.65;22.23;;;;;;;0.42;99.14;103908.88;5034155;28;20068;-73
2023/02/08 00:57:35;;;;;;;57.33;31.60;;;;;;;0.42;99.26;103910.56;5038339;28;20105;-73
2023/02/08 01:00:01;;;;;;;71.10;42.08;;;;;;;0.41;99.05;103912.25;5038708;28;20037;-73
2023/02/08 01:02:28;;;;;;;86.00;48.15;;;;;;;0.40;99.35;103913.09;5038071;28;20101;-73
2023/02/08 01:04:53;;;;;;;76.18;45.08;;;;;;;0.41;99.11;103926.84;5036051;28;20396;-73
2023/02/08 01:07:18;;;;;;;77.63;44.30;;;;;;;0.38;99.25;103915.56;5038073;28;20049;-73
2023/02/08 01:09:44;;;;;;;67.55;39.92;;;;;;;0.37;99.20;103911.22;5038654;28;20120;-73
2023/02/08 01:12:09;;;;;;;73.97;44.00;;;;;;;0.36;99.26;103919.78;5038947;28;20033;-73
2023/02/08 01:14:36;;;;;;;93.75;53.70;;;;;;;0.36;99.20;103918.88;5044080;28;20048;-73
2023/02/08 01:17:02;;;;;;;105.80;63.22;;;;;;;0.34;99.21;103907.59;5038541;28;20256;-73
2023/02/08 01:19:27;;;;;;;102.78;63.25;;;;;;;0.34;99.42;103920.47;5025527;28;20017;-73
2023/02/08 01:21:53;;;;;;;91.00;54.75;;;;;;;0.33;99.33;103929.91;5047510;28;20056;-73
2023/02/08 01:24:19;;;;;;;83.95;49.75;;;;;;;0.32;99.38;103919.53;5035828;28;20414;-73
2023/02/08 01:26:44;;;;;;;81.28;45.78;;;;;;;0.31;99.40;103912.59;5038356;28;20120;-73
2023/02/08 01:29:10;;;;;;;72.75;42.05;;;;;;;0.31;99.59;103913.50;5012016;28;20029;-73
2023/02/08 01:31:37;;;;;;;58.00;36.65;;;;;;;0.30;99.50;103915.97;5043685;28;20136;-73
2023/02/08 01:34:04;;;;;;;48.50;30.65;;;;;;;0.29;99.57;103906.47;5056855;28;20036;-73
2023/02/08 01:36:32;;;;;;;44.50;27.27;;;;;;;0.27;99.38;103913.25;5038262;28;20064;-73
2023/02/08 01:38:58;;;;;;;40.42;23.40;;;;;;;0.25;99.50;103908.00;5038041;28;20100;-73
2023/02/08 01:41:30;;;;;;;30.92;19.45;;;;;;;0.25;99.39;103905.41;5042439;28;20041;-73
2023/02/08 01:44:04;;;;;;;27.90;16.95;;;;;;;0.23;99.57;103909.63;5038340;28;20068;-73
2023/02/08 01:46:30;;;;;;;21.50;14.45;;;;;;;0.22;99.50;103909.53;5037160;28;20356;-73
2023/02/08 01:49:17;;;;;;;21.98;13.25;;;;;;;0.22;99.51;103907.88;5054741;28;20347;-73
2023/02/08 01:51:50;;;;;;;18.95;11.90;;;;;;;0.19;99.57;103911.16;5039989;28;20049;-73
2023/02/08 01:54:19;;;;;;;16.55;10.60;;;;;;;0.18;99.63;103903.34;5037356;28;20048;-73
2023/02/08 01:56:46;;;;;;;15.30;9.82;;;;;;;0.17;99.40;103907.63;5037366;28;20044;-73
2023/02/08 01:59:19;;;;;;;15.15;10.20;;;;;;;0.17;99.66;103899.88;5056046;28;20116;-73
2023/02/08 02:01:46;;;;;;;14.43;9.85;;;;;;;0.16;99.53;103904.94;5051930;28;20190;-73
2023/02/08 02:04:12;;;;;;;15.20;9.48;;;;;;;0.15;99.69;103906.66;5057217;28;20037;-73
2023/02/08 02:06:48;;;;;;;14.75;9.73;;;;;;;0.15;99.58;103908.34;5037460;28;20041;-73
2023/02/08 02:09:53;;;;;;;15.20;9.65;;;;;;;0.12;99.62;103903.91;5039012;28;20237;-73
2023/02/08 02:12:20;;;;;;;14.73;9.25;;;;;;;0.13;99.60;103907.41;5033137;28;20040;-73
2023/02/08 02:14:46;;;;;;;12.20;8.30;;;;;;;0.10;99.73;103902.94;5049663;28;20041;-73
2023/02/08 02:17:14;;;;;;;12.85;8.93;;;;;;;0.08;99.69;103907.16;5038296;28;20307;-73
2023/02/08 02:19:53;;;;;;;12.63;8.18;;;;;;;0.08;99.62;103901.13;5038269;28;20100;-73
2023/02/08 02:22:30;;;;;;;14.13;8.68;;;;;;;0.06;99.88;103898.44;5032578;28;20025;-73
2023/02/08 02:25:23;;;;;;;15.00;8.90;;;;;;;0.04;99.57;103897.50;5049482;28;20021;-73
2023/02/08 02:28:04;;;;;;;14.93;8.98;;;;;;;0.03;99.60;103893.13;5037213;28;20165;-73
2023/02/08 02:31:14;;;;;;;13.32;9.25;;;;;;;0.03;99.54;103895.69;5037988;28;20037;-73
2023/02/08 02:33:59;;;;;;;13.18;8.75;;;;;;;0.02;99.63;103887.88;4955318;29;20047;-73
2023/02/08 02:36:44;;;;;;;12.35;8.50;;;;;;;0.01;99.67;103884.44;5030984;28;20233;-73
2023/02/08 02:39:24;;;;;;;14.00;8.93;;;;;;;-0.02;99.70;103880.03;5036517;28;20053;-73
2023/02/08 02:44:52;;;;;;;15.07;9.07;;;;;;;-0.04;99.66;103891.03;5036979;28;19912;-73
2023/02/08 02:47:48;;;;;;;12.73;9.25;;;;;;;-0.05;99.71;103892.72;5036589;28;20395;-73
2023/02/08 02:50:39;;;;;;;13.77;9.27;;;;;;;-0.06;99.67;103885.78;5038028;28;20310;-73
2023/02/08 02:53:23;;;;;;;18.13;10.35;;;;;;;-0.07;99.82;103881.47;5036413;28;20120;-73
2023/02/08 02:55:57;;;;;;;13.82;9.18;;;;;;;-0.05;99.80;103884.13;5046870;28;20059;-73
2023/02/08 02:58:25;;;;;;;13.80;9.10;;;;;;;-0.06;99.81;103884.91;5056330;28;20024;-73
2023/02/08 03:00:52;;;;;;;14.90;8.27;;;;;;;-0.05;99.80;103884.13;5027722;28;20053;-73
2023/02/08 03:03:24;;;;;;;12.77;8.57;;;;;;;-0.05;100.00;103889.28;5038765;28;20040;-73
2023/02/08 03:05:51;;;;;;;12.32;8.50;;;;;;;-0.06;100.00;103879.75;5040747;28;20029;-73
2023/02/08 03:08:34;;;;;;;16.02;9.55;;;;;;;-0.07;100.00;103876.31;5037778;28;20376;-73
2023/02/08 03:11:13;;;;;;;16.10;9.27;;;;;;;-0.08;100.00;103876.22;5055478;28;20501;-73
2023/02/08 03:14:03;;;;;;;10.13;8.10;;;;;;;-0.10;99.94;103881.28;5038430;28;20060;-73
2023/02/08 03:16:47;;;;;;;11.73;8.35;;;;;;;-0.10;99.92;103875.28;5043915;28;20037;-73
2023/02/08 03:19:30;;;;;;;13.07;8.15;;;;;;;-0.11;100.00;103876.06;5056729;28;20025;-73
2023/02/08 03:21:55;;;;;;;11.57;8.73;;;;;;;-0.12;100.00;103869.16;5042979;28;20033;-73
2023/02/08 03:24:54;;;;;;;13.27;9.35;;;;;;;-0.11;100.00;103865.75;5036304;28;20035;-74
2023/02/08 03:27:43;;;;;;;11.70;8.80;;;;;;;-0.12;100.00;103866.56;5021762;28;20519;-74
2023/02/08 03:30:18;;;;;;;13.15;9.15;;;;;;;-0.13;99.97;103863.09;5036299;28;20041;-74
2023/02/08 03:32:51;;;;;;;13.73;8.95;;;;;;;-0.13;100.00;103860.50;5037870;28;20340;-74
2023/02/08 03:35:26;;;;;;;10.70;8.60;;;;;;;-0.14;100.00;103865.63;5035812;28;20083;-74
2023/02/08 03:38:02;;;;;;;12.85;8.45;;;;;;;-0.15;100.00;103859.56;5039832;28;20324;-74
2023/02/08 03:40:36;;;;;;;12.35;9.10;;;;;;;-0.15;100.00;103862.13;5040912;28;20029;-74
2023/02/08 03:43:08;;;;;;;13.70;8.93;;;;;;;-0.15;100.00;103853.53;5040546;28;20041;-74
2023/02/08 03:45:52;;;;;;;13.70;9.73;;;;;;;-0.15;100.00;103851.81;5041213;28;20033;-74
2023/02/08 03:48:20;;;;;;;14.50;9.35;;;;;;;-0.15;100.00;103853.53;5029180;28;20069;-74
2023/02/08 03:50:49;;;;;;;13.33;9.53;;;;;;;-0.17;100.00;103845.72;5040249;28;20035;-74
2023/02/08 03:53:18;;;;;;;14.35;9.10;;;;;;;-0.17;100.00;103856.03;5039442;28;20108;-74
2023/02/08 03:55:46;;;;;;;14.18;8.57;;;;;;;-0.18;100.00;103853.34;5051254;28;20414;-74
2023/02/08 03:58:21;;;;;;;12.57;8.60;;;;;;;-0.18;100.00;103855.94;5046568;28;20359;-74
2023/02/08 04:00:54;;;;;;;16.80;8.85;;;;;;;-0.21;100.00;103854.09;5057991;28;20100;-74
2023/02/08 04:03:25;;;;;;;14.55;8.90;;;;;;;-0.22;100.00;103855.78;5039618;28;20041;-74
2023/02/08 04:05:50;;;;;;;13.18;8.98;;;;;;;-0.22;100.00;103857.47;5039566;28;20103;-74
2023/02/08 04:08:16;;;;;;;9.90;8.63;;;;;;;-0.23;100.00;103860.88;5051027;28;20120;-74
2023/02/08 04:10:41;;;;;;;12.85;8.90;;;;;;;-0.24;100.00;103857.41;5039861;28;20033;-74
2023/02/08 04:13:07;;;;;;;14.52;8.95;;;;;;;-0.24;100.00;103861.66;5039830;28;20296;-74
2023/02/08 04:15:32;;;;;;;13.05;8.55;;;;;;;-0.26;100.00;103864.16;5046869;28;20029;-74
2023/02/08 04:17:58;;;;;;;12.13;8.43;;;;;;;-0.27;100.00;103864.97;5053100;28;20316;-74
2023/02/08 04:20:23;;;;;;;12.20;8.60;;;;;;;-0.28;100.00;103865.75;5052775;28;20323;-74
2023/02/08 04:22:48;;;;;;;13.18;8.50;;;;;;;-0.30;100.00;103862.22;5039454;28;20114;-74
2023/02/08 04:25:14;;;;;;;15.88;9.10;;;;;;;-0.29;100.00;103860.53;5040774;28;20029;-74
2023/02/08 04:27:40;;;;;;;10.18;8.15;;;;;;;-0.29;100.00;103858.84;5039336;28;20351;-74
2023/02/08 04:30:06;;;;;;;16.08;8.90;;;;;;;-0.29;100.00;103856.28;5044194;28;20033;-74
2023/02/08 04:32:31;;;;;;;15.48;9.30;;;;;;;-0.29;100.00;103855.38;5051345;28;20040;-74
2023/02/08 04:34:57;;;;;;;12.73;8.82;;;;;;;-0.30;100.00;103851.91;5056148;28;20206;-74
2023/02/08 04:37:22;;;;;;;15.32;9.35;;;;;;;-0.30;100.00;103848.47;5043125;28;20049;-74
2023/02/08 04:39:48;;;;;;;13.60;8.52;;;;;;;-0.32;100.00;103850.97;5057573;28;20079;-74
2023/02/08 04:42:13;;;;;;;14.05;9.00;;;;;;;-0.32;100.00;103857.81;5047590;28;20045;-74
2023/02/08 04:44:39;;;;;;;12.50;8.57;;;;;;;-0.32;100.00;103847.50;5038357;28;20344;-74
2023/02/08 04:47:04;;;;;;;13.85;9.13;;;;;;;-0.33;100.00;103845.72;5039548;28;20080;-74
2023/02/08 04:49:29;;;;;;;13.88;9.02;;;;;;;-0.34;100.00;103841.38;5057329;28;20094;-74
2023/02/08 04:51:55;;;;;;;14.90;9.93;;;;;;;-0.35;100.00;103842.19;5050178;28;20049;-74
2023/02/08 04:54:20;;;;;;;13.52;9.13;;;;;;;-0.36;100.00;103838.72;5038285;28;20325;-74
2023/02/08 04:56:46;;;;;;;15.18;9.80;;;;;;;-0.37;100.00;103839.53;5043045;28;20049;-74
2023/02/08 04:59:11;;;;;;;9.55;7.97;;;;;;;-0.37;100.00;103836.06;5058741;28;20275;-74
2023/02/08 05:01:36;;;;;;;12.63;8.57;;;;;;;-0.37;100.00;103833.50;5052733;28;20044;-74
2023/02/08 05:04:02;;;;;;;13.48;9.25;;;;;;;-0.40;100.00;103834.19;5038906;28;20136;-74
2023/02/08 05:06:27;;;;;;;11.80;8.95;;;;;;;-0.39;100.00;103833.41;5038480;28;20037;-74
2023/02/08 05:08:52;;;;;;;11.90;8.77;;;;;;;-0.40;100.00;103832.53;5058213;28;20111;-74
2023/02/08 05:11:23;;;;;;;10.82;8.32;;;;;;;-0.40;100.00;103832.53;5055520;28;20033;-74
2023/02/08 05:13:49;;;;;;;13.95;9.23;;;;;;;-0.41;100.00;103819.56;5058422;28;20510;-74
2023/02/08 05:16:14;;;;;;;15.85;9.43;;;;;;;-0.41;100.00;103819.56;5050302;28;20040;-74
2023/02/08 05:18:40;;;;;;;13.27;9.48;;;;;;;-0.42;100.00;103830.66;5038293;28;20025;-74
2023/02/08 05:21:05;;;;;;;13.75;9.07;;;;;;;-0.41;100.00;103827.28;5044135;28;20024;-74
2023/02/08 05:23:32;;;;;;;13.05;9.18;;;;;;;-0.41;100.00;103832.44;5041971;28;20044;-74
2023/02/08 05:25:57;;;;;;;15.00;9.13;;;;;;;-0.42;100.00;103822.94;5045991;28;20044;-74
2023/02/08 05:28:23;;;;;;;11.23;8.10;;;;;;;-0.42;100.00;103828.09;5043640;28;20045;-74
2023/02/08 05:30:48;;;;;;;12.80;9.43;;;;;;;-0.44;100.00;103821.97;5038378;28;20047;-74
2023/02/08 05:33:14;;;;;;;14.95;9.73;;;;;;;-0.45;100.00;103830.53;5038334;28;20045;-73
2023/02/08 05:35:39;;;;;;;11.13;8.55;;;;;;;-0.46;100.00;103831.31;5038199;28;20033;-73
2023/02/08 05:38:05;;;;;;;10.27;8.48;;;;;;;-0.47;100.00;103826.97;5022086;28;20087;-73
2023/02/08 05:40:31;;;;;;;14.45;9.52;;;;;;;-0.49;100.00;103824.31;5057341;28;20339;-73
2023/02/08 05:42:57;;;;;;;12.40;9.40;;;;;;;-0.48;100.00;103822.63;5043741;28;20068;-74
2023/02/08 05:45:22;;;;;;;14.40;8.93;;;;;;;-0.48;100.00;103818.34;5038526;28;20181;-74
2023/02/08 05:47:48;;;;;;;13.23;9.05;;;;;;;-0.48;100.00;103814.91;5044998;28;20325;-73
2023/02/08 05:50:13;;;;;;;12.68;8.40;;;;;;;-0.47;100.00;103814.13;5037974;28;20041;-74
2023/02/08 05:52:39;;;;;;;11.35;9.23;;;;;;;-0.48;100.00;103820.94;5037282;28;20071;-74
2023/02/08 05:55:05;;;;;;;14.00;9.57;;;;;;;-0.48;100.00;103820.06;5054640;28;20344;-74
2023/02/08 05:57:30;;;;;;;13.77;9.05;;;;;;;-0.50;100.00;103806.22;5047489;28;20065;-74
2023/02/08 05:59:56;;;;;;;14.20;9.15;;;;;;;-0.50;100.00;103803.63;5037655;28;20038;-74
2023/02/08 06:02:21;;;;;;;12.68;9.20;;;;;;;-0.51;100.00;103805.34;5036913;28;20394;-74
2023/02/08 06:04:46;;;;;;;13.30;9.10;;;;;;;-0.51;100.00;103804.44;5037597;28;20060;-74
2023/02/08 06:07:12;;;;;;;11.80;8.77;;;;;;;-0.52;100.00;103806.13;5038959;28;20045;-73
2023/02/08 06:09:38;;;;;;;12.18;8.65;;;;;;;-0.53;100.00;103804.34;5048184;28;20315;-73
2023/02/08 06:12:04;;;;;;;11.75;8.43;;;;;;;-0.54;100.00;103800.03;5050532;28;20041;-73
2023/02/08 06:14:29;;;;;;;12.32;8.70;;;;;;;-0.55;100.00;103813.69;5019141;28;20329;-73
2023/02/08 06:16:55;;;;;;;14.52;8.00;;;;;;;-0.56;100.00;103811.94;5038313;28;20084;-74
2023/02/08 06:19:20;;;;;;;11.55;8.63;;;;;;;-0.57;100.00;103817.88;5031207;28;20037;-73
2023/02/08 06:21:45;;;;;;;11.55;8.65;;;;;;;-0.59;100.00;103810.06;5040676;28;20059;-74
2023/02/08 06:24:12;;;;;;;12.60;9.52;;;;;;;-0.60;100.00;103805.72;5036539;28;20060;-74
2023/02/08 06:26:38;;;;;;;11.55;8.55;;;;;;;-0.60;100.00;103804.81;5035899;28;20037;-74
2023/02/08 06:29:03;;;;;;;12.18;8.65;;;;;;;-0.60;100.00;103807.41;5036544;28;20048;-74
2023/02/08 06:31:29;;;;;;;11.30;8.52;;;;;;;-0.60;100.00;103809.97;5035587;28;20041;-74
2023/02/08 06:33:54;;;;;;;14.25;8.43;;;;;;;-0.61;100.00;103814.25;5034414;28;20333;-74
2023/02/08 06:36:19;;;;;;;12.05;9.07;;;;;;;-0.61;100.00;103823.66;5035968;28;20064;-73
2023/02/08 06:38:45;;;;;;;14.45;9.13;;;;;;;-0.62;100.00;103829.59;5037354;28;20041;-73
2023/02/08 06:41:11;;;;;;;10.48;8.43;;;;;;;-0.61;100.00;103841.69;5036971;28;20064;-73
2023/02/08 06:43:36;;;;;;;13.63;9.48;;;;;;;-0.63;100.00;103835.56;5031328;28;20382;-73
2023/02/08 06:46:07;;;;;;;13.73;9.20;;;;;;;-0.62;100.00;103834.75;5033493;28;20044;-73
2023/02/08 06:48:33;;;;;;;12.77;8.52;;;;;;;-0.63;100.00;103831.31;5030469;28;20028;-73
2023/02/08 06:50:58;;;;;;;12.77;8.73;;;;;;;-0.62;100.00;103829.59;5034443;28;20025;-73
2023/02/08 06:53:24;;;;;;;11.25;8.48;;;;;;;-0.63;100.00;103822.69;5033732;28;20052;-73
2023/02/08 06:55:50;;;;;;;10.93;8.55;;;;;;;-0.63;100.00;103831.31;5037309;28;20104;-73
2023/02/08 06:58:16;;;;;;;12.77;9.00;;;;;;;-0.64;100.00;103816.69;5033287;28;20052;-74
2023/02/08 07:00:44;;;;;;;11.68;8.65;;;;;;;-0.65;100.00;103814.88;5038183;28;20033;-74
2023/02/08 07:03:10;;;;;;;12.25;9.02;;;;;;;-0.65;100.00;103812.31;5016374;28;20041;-74
2023/02/08 07:05:35;;;;;;;14.98;9.35;;;;;;;-0.64;100.00;103808.03;5037779;28;20044;-74
2023/02/08 07:08:01;;;;;;;10.98;8.93;;;;;;;-0.64;100.00;103811.53;5035048;28;20516;-74
2023/02/08 07:10:26;;;;;;;13.13;9.38;;;;;;;-0.64;100.00;103811.53;5036680;28;20029;-74
2023/02/08 07:12:52;;;;;;;13.32;9.50;;;;;;;-0.65;100.00;103819.16;5036041;28;20087;-74
2023/02/08 07:15:17;;;;;;;13.25;9.13;;;;;;;-0.65;100.00;103816.59;5045599;28;20048;-74
2023/02/08 07:17:42;;;;;;;12.00;9.13;;;;;;;-0.67;100.00;103806.22;5036591;28;20037;-74
2023/02/08 07:20:10;;;;;;;13.02;9.02;;;;;;;-0.67;100.00;103806.22;5035511;28;20096;-74
2023/02/08 07:22:36;;;;;;;15.52;9.27;;;;;;;-0.66;100.00;103805.38;5033359;28;20037;-74
2023/02/08 07:25:02;;;;;;;14.23;9.48;;;;;;;-0.66;100.00;103805.38;5042213;28;20048;-74
2023/02/08 07:27:27;;;;;;;14.20;9.20;;;;;;;-0.65;100.00;103814.88;5033628;28;20076;-74
2023/02/08 07:29:52;;;;;;;13.68;9.32;;;;;;;-0.67;100.00;103813.06;5049626;28;20422;-74
2023/02/08 07:32:18;;;;;;;11.63;8.55;;;;;;;-0.66;100.00;103815.69;5033001;28;20091;-74
2023/02/08 07:34:44;;;;;;;12.48;8.82;;;;;;;-0.68;100.00;103812.16;5033974;28;20040;-74
2023/02/08 07:37:09;;;;;;;12.32;8.77;;;;;;;-0.67;100.00;103813.94;5041106;28;20466;-74
2023/02/08 07:39:35;;;;;;;11.48;8.52;;;;;;;-0.67;100.00;103813.06;5032900;28;20087;-74
2023/02/08 07:42:00;;;;;;;13.70;9.20;;;;;;;-0.65;100.00;103808.88;5049392;28;20050;-74
2023/02/08 07:44:26;;;;;;;14.25;10.40;;;;;;;-0.65;100.00;103801.16;5032657;28;20045;-74
2023/02/08 07:46:51;;;;;;;14.25;9.60;;;;;;;-0.67;100.00;103801.06;5040227;28;20041;-74
2023/02/08 07:49:16;;;;;;;11.82;9.43;;;;;;;-0.68;100.00;103801.84;5040079;28;20033;-74
2023/02/08 07:51:42;;;;;;;12.75;9.35;;;;;;;-0.65;100.00;103808.88;5036443;28;20076;-74
2023/02/08 07:54:07;;;;;;;15.98;10.05;;;;;;;-0.66;100.00;103818.25;5035383;28;20021;-74
2023/02/08 07:56:33;;;;;;;10.70;8.77;;;;;;;-0.65;100.00;103808.88;5032765;28;20060;-73
2023/02/08 07:58:58;;;;;;;14.07;9.68;;;;;;;-0.66;100.00;103802.81;5037271;28;20272;-73
2023/02/08 08:01:23;;;;;;;12.45;9.15;;;;;;;-0.65;100.00;103804.59;5032353;28;20095;-73
2023/02/08 08:03:50;;;;;;;11.80;9.00;;;;;;;-0.64;100.00;103802.91;5025028;28;20051;-74
2023/02/08 08:06:17;;;;;;;12.77;8.93;;;;;;;-0.64;100.00;103790.03;5018319;28;20380;-74
2023/02/08 08:08:46;;;;;;;17.30;9.52;;;;;;;-0.63;100.00;103799.53;5033447;28;20109;-74
2023/02/08 08:11:12;;;;;;;11.88;8.88;;;;;;;-0.63;100.00;103802.97;5036369;28;20045;-74
2023/02/08 08:13:38;;;;;;;14.55;9.52;;;;;;;-0.62;100.00;103807.34;5033157;28;20033;-74
2023/02/08 08:16:03;;;;;;;11.20;9.25;;;;;;;-0.61;100.00;103797.91;5033122;28;20358;-74
2023/02/08 08:18:30;;;;;;;14.55;9.13;;;;;;;-0.60;100.00;103807.41;5031818;28;20042;-74
2023/02/08 08:20:55;;;;;;;12.48;9.23;;;;;;;-0.59;100.00;103798.88;5032499;28;20298;-74
2023/02/08 08:23:21;;;;;;;15.40;11.13;;;;;;;-0.57;100.00;103796.41;5038475;28;20499;-74
2023/02/08 08:25:46;;;;;;;12.30;9.68;;;;;;;-0.56;100.00;103804.22;5045742;28;20217;-74
2023/02/08 08:28:12;;;;;;;13.00;9.90;;;;;;;-0.56;100.00;103799.06;5038223;28;20045;-74
2023/02/08 08:30:37;;;;;;;16.52;10.23;;;;;;;-0.53;100.00;103806.03;5035196;28;20045;-74
2023/02/08 08:33:02;;;;;;;17.58;10.57;;;;;;;-0.53;100.00;103804.34;5029981;28;20295;-74
2023/02/08 08:35:28;;;;;;;15.65;10.55;;;;;;;-0.52;100.00;103803.56;5035038;28;20041;-74
2023/02/08 08:37:53;;;;;;;18.08;10.48;;;;;;;-0.50;100.00;103801.94;5035087;28;20521;-74
2023/02/08 08:40:19;;;;;;;15.57;10.07;;;;;;;-0.48;100.00;103799.44;5034742;28;20037;-74
2023/02/08 08:42:44;;;;;;;15.32;10.25;;;;;;;-0.46;100.00;103800.41;5035205;28;20056;-74
2023/02/08 08:45:10;;;;;;;16.63;10.80;;;;;;;-0.46;100.00;103797.84;5035964;28;20124;-74
2023/02/08 08:47:35;;;;;;;14.27;9.98;;;;;;;-0.43;100.00;103798.00;5032553;28;20052;-74
2023/02/08 08:50:01;;;;;;;15.07;10.52;;;;;;;-0.41;100.00;103798.97;5036464;28;20240;-74
2023/02/08 08:52:26;;;;;;;15.10;10.18;;;;;;;-0.40;100.00;103790.41;5036670;28;20323;-74
2023/02/08 08:54:52;;;;;;;14.13;10.32;;;;;;;-0.37;100.00;103790.59;5035753;28;20049;-74
2023/02/08 08:57:17;;;;;;;18.15;11.43;;;;;;;-0.35;100.00;103786.41;5033410;28;20345;-74
2023/02/08 08:59:43;;;;;;;16.73;10.95;;;;;;;-0.32;100.00;103791.72;5034310;28;20033;-74
2023/02/08 09:02:14;;;;;;;17.40;11.65;;;;;;;-0.29;100.00;103788.41;5031327;28;20329;-74
2023/02/08 09:04:40;;;;;;;19.17;12.00;;;;;;;-0.27;100.00;103790.28;5034771;28;20037;-74
2023/02/08 09:07:07;;;;;;;18.95;12.40;;;;;;;-0.25;100.00;103785.19;5034618;28;20044;-74
2023/02/08 09:09:32;;;;;;;17.13;11.05;;;;;;;-0.23;100.00;103788.75;5032065;28;20225;-74
2023/02/08 09:11:58;;;;;;;19.55;12.40;;;;;;;-0.22;100.00;103783.66;5034970;28;20079;-74
2023/02/08 09:14:23;;;;;;;16.10;11.27;;;;;;;-0.20;100.00;103792.34;5034502;28;20033;-74
2023/02/08 09:16:49;;;;;;;16.00;10.65;;;;;;;-0.17;100.00;103785.59;5036106;28;20264;-74
2023/02/08 09:19:15;;;;;;;14.77;11.20;;;;;;;-0.15;100.00;103794.28;5034680;28;20241;-74
2023/02/08 09:21:41;;;;;;;19.85;11.40;;;;;;;-0.13;100.00;103793.53;5036085;28;20290;-74
2023/02/08 09:24:06;;;;;;;15.88;10.75;;;;;;;-0.11;100.00;103789.38;5033913;28;20045;-74
2023/02/08 09:26:32;;;;;;;18.15;11.77;;;;;;;-0.09;100.00;103802.31;5031333;28;20033;-74
2023/02/08 09:28:58;;;;;;;17.27;11.15;;;;;;;-0.08;100.00;103797.22;5033850;28;20404;-74
2023/02/08 09:31:26;;;;;;;14.48;11.10;;;;;;;-0.05;100.00;103793.94;5034628;28;20111;-74
2023/02/08 09:33:53;;;;;;;21.17;12.15;;;;;;;-0.03;100.00;103798.34;5034704;28;20049;-74
2023/02/08 09:36:20;;;;;;;13.52;10.77;;;;;;;0.01;100.00;103799.41;5033944;28;20218;-74
2023/02/08 09:38:47;;;;;;;13.70;10.77;;;;;;;0.04;100.00;103807.28;5034545;28;20135;-74
2023/02/08 09:41:33;;;;;;;20.25;11.70;;;;;;;0.06;100.00;103805.69;5034748;28;20041;-74
2023/02/08 09:44:14;;;;;;;17.25;13.00;;;;;;;0.09;100.00;103804.94;5034350;28;20203;-75
2023/02/08 09:46:44;;;;;;;19.60;11.73;;;;;;;0.11;100.00;103809.38;5033630;28;20045;-74
2023/02/08 09:49:23;;;;;;;16.63;11.75;;;;;;;0.14;100.00;103809.50;5034338;28;20044;-75
2023/02/08 09:52:12;;;;;;;16.23;11.38;;;;;;;0.17;100.00;103809.66;5034969;28;20061;-75
2023/02/08 09:54:46;;;;;;;16.52;11.75;;;;;;;0.19;100.00;103805.47;5034190;28;20365;-75
2023/02/08 09:57:21;;;;;;;18.73;12.77;;;;;;;0.24;100.00;103802.22;5034072;28;20060;-75
2023/02/08 09:59:53;;;;;;;17.45;12.60;;;;;;;0.29;100.00;103805.94;5034648;28;20109;-75
2023/02/08 10:02:29;;;;;;;20.33;13.02;;;;;;;0.30;100.00;103794.81;5033566;28;20108;-75
2023/02/08 10:05:20;;;;;;;17.65;12.18;;;;;;;0.34;100.00;103792.44;5033902;28;20041;-74
2023/02/08 10:07:45;;;;;;;19.77;12.73;;;;;;;0.39;100.00;103795.25;5030951;28;20045;-75
2023/02/08 10:10:21;;;;;;;21.80;13.98;;;;;;;0.42;100.00;103795.44;5033874;28;20372;-75
2023/02/08 10:13:21;;;;;;;17.48;12.55;;;;;;;0.45;100.00;103794.69;5033480;28;20033;-75
2023/02/08 10:15:55;;;;;;;19.85;12.55;;;;;;;0.49;100.00;103804.31;5030179;28;20051;-75
2023/02/08 10:18:45;;;;;;;17.67;12.55;;;;;;;0.51;100.00;103815.59;5034997;28;20218;-74
2023/02/08 10:21:46;;;;;;;18.80;12.63;;;;;;;0.54;100.00;103816.63;5037556;28;20043;-74
2023/02/08 10:24:37;;;;;;;18.55;12.25;;;;;;;0.59;100.00;103822.03;5034543;28;20236;-75
2023/02/08 10:27:08;;;;;;;20.63;12.93;;;;;;;0.63;100.00;103821.34;5033538;28;20057;-75
2023/02/08 10:29:54;;;;;;;18.02;12.18;;;;;;;0.67;100.00;103818.09;5033496;28;20037;-75
2023/02/08 10:32:31;;;;;;;22.15;11.93;;;;;;;0.70;100.00;103812.22;5033107;28;20553;-74
2023/02/08 10:35:14;;;;;;;20.48;12.13;;;;;;;0.75;100.00;103813.34;5033569;28;20325;-75
2023/02/08 10:37:42;;;;;;;17.15;11.57;;;;;;;0.76;100.00;103820.25;5029604;28;20041;-75
2023/02/08 10:40:31;;;;;;;15.00;11.00;;;;;;;0.79;100.00;103810.09;5033455;28;20048;-75
2023/02/08 10:43:23;;;;;;;18.52;12.30;;;;;;;0.82;100.00;103817.97;5032348;28;20122;-75
2023/02/08 10:45:48;;;;;;;17.55;12.15;;;;;;;0.84;100.00;103805.16;5031560;28;20113;-75
2023/02/08 10:48:21;;;;;;;21.45;11.40;;;;;;;0.87;100.00;103810.44;5030970;28;20037;-75
2023/02/08 10:50:47;;;;;;;17.35;13.15;;;;;;;0.90;100.00;103808.88;5033873;28;20025;-75
2023/02/08 10:53:15;;;;;;;18.15;12.27;;;;;;;0.92;100.00;103804.69;5033110;28;20052;-74
2023/02/08 10:55:44;;;;;;;14.07;10.60;;;;;;;0.95;100.00;103807.41;5015844;28;20191;-75
2023/02/08 10:58:15;;;;;;;;;;;;;;;0.96;100.00;103797.97;5033726;28;20045;-75
2023/02/08 11:00:42;;;;;;;14.52;10.23;;;;;;;0.99;100.00;103790.38;5033925;28;20208;-75
2023/02/08 11:03:27;;;;;;;23.10;13.45;;;;;;;1.03;100.00;103796.56;5032835;28;20358;-75
2023/02/08 11:05:53;;;;;;;13.60;9.82;;;;;;;1.04;100.00;103794.06;5033718;28;20283;-75
2023/02/08 11:08:21;;;;;;;13.10;8.95;;;;;;;1.08;100.00;103789.91;5032596;28;20049;-75
2023/02/08 11:11:06;;;;;;;12.80;9.43;;;;;;;1.09;100.00;103774.50;5033405;28;20099;-75
2023/02/08 11:13:43;;;;;;;15.40;10.93;;;;;;;1.13;100.00;103778.13;5026490;28;20084;-75
2023/02/08 11:16:12;;;;;;;11.75;8.80;;;;;;;1.16;100.00;103780.81;5031676;28;20221;-75
2023/02/08 11:18:46;;;;;;;;;;;;;;;1.20;100.00;103785.31;5032950;28;20041;-75
2023/02/08 11:21:28;;;;;;;13.50;9.80;;;;;;;1.24;99.74;103784.63;5033659;28;19916;-75
2023/02/08 11:23:56;;;;;;;16.33;11.18;;;;;;;1.24;96.65;103771.72;5035109;28;20409;-75
2023/02/08 11:26:26;;;;;;;18.73;11.27;;;;;;;1.26;94.17;103774.38;5032353;28;20100;-75